sensor_id;sensor_type;location;lat;lon;timestamp;P1;durP1;ratioP1;P2;durP2;ratioP2
769;SDS011;368;48.698;9.116;2023-03-31T00:01:25;7.63;;;3.07;;
769;SDS011;368;48.698;9.116;2023-03-31T00:03:54;5.03;;;2.63;;
769;SDS011;368;48.698;9.116;2023-03-31T00:06:28;3.10;;;2.13;;
769;SDS011;368;48.698;9.116;2023-03-31T00:08:55;4.53;;;2.50;;
769;SDS011;368;48.698;9.116;2023-03-31T00:11:26;3.27;;;1.70;;
769;SDS011;368;48.698;9.116;2023-03-31T00:13:53;5.83;;;2.07;;
769;SDS011;368;48.698;9.116;2023-03-31T00:16:21;7.27;;;2.23;;
769;SDS011;368;48.698;9.116;2023-03-31T00:18:48;7.87;;;2.50;;
769;SDS011;368;48.698;9.116;2023-03-31T00:21:16;7.80;;;3.23;;
769;SDS011;368;48.698;9.116;2023-03-31T00:23:49;3.23;;;2.00;;
769;SDS011;368;48.698;9.116;2023-03-31T00:26:16;6.40;;;2.40;;
769;SDS011;368;48.698;9.116;2023-03-31T00:28:43;5.80;;;2.70;;
769;SDS011;368;48.698;9.116;2023-03-31T00:31:10;5.97;;;2.13;;
769;SDS011;368;48.698;9.116;2023-03-31T00:33:38;6.03;;;2.40;;
769;SDS011;368;48.698;9.116;2023-03-31T00:36:05;3.67;;;2.20;;
769;SDS011;368;48.698;9.116;2023-03-31T00:38:33;5.60;;;2.00;;
769;SDS011;368;48.698;9.116;2023-03-31T00:41:01;6.23;;;2.70;;
769;SDS011;368;48.698;9.116;2023-03-31T00:43:29;5.53;;;2.90;;
769;SDS011;368;48.698;9.116;2023-03-31T00:45:59;6.00;;;2.50;;
769;SDS011;368;48.698;9.116;2023-03-31T00:48:39;4.47;;;2.83;;
769;SDS011;368;48.698;9.116;2023-03-31T00:51:09;4.43;;;2.30;;
769;SDS011;368;48.698;9.116;2023-03-31T00:53:37;5.20;;;2.30;;
769;SDS011;368;48.698;9.116;2023-03-31T00:56:06;6.63;;;2.93;;
769;SDS011;368;48.698;9.116;2023-03-31T00:58:37;5.60;;;2.70;;
769;SDS011;368;48.698;9.116;2023-03-31T01:01:07;5.50;;;2.30;;
769;SDS011;368;48.698;9.116;2023-03-31T01:03:40;4.80;;;2.20;;
769;SDS011;368;48.698;9.116;2023-03-31T01:06:10;5.90;;;2.47;;
769;SDS011;368;48.698;9.116;2023-03-31T01:08:41;6.27;;;2.90;;
769;SDS011;368;48.698;9.116;2023-03-31T01:11:10;5.60;;;2.80;;
769;SDS011;368;48.698;9.116;2023-03-31T01:13:40;7.27;;;3.30;;
769;SDS011;368;48.698;9.116;2023-03-31T01:16:10;4.70;;;2.70;;
769;SDS011;368;48.698;9.116;2023-03-31T01:18:37;4.97;;;3.23;;
769;SDS011;368;48.698;9.116;2023-03-31T01:21:21;3.40;;;2.27;;
769;SDS011;368;48.698;9.116;2023-03-31T01:30:51;8.97;;;2.83;;
769;SDS011;368;48.698;9.116;2023-03-31T01:33:44;4.70;;;3.33;;
769;SDS011;368;48.698;9.116;2023-03-31T01:36:42;7.90;;;2.60;;
769;SDS011;368;48.698;9.116;2023-03-31T01:42:38;6.77;;;2.50;;
769;SDS011;368;48.698;9.116;2023-03-31T01:45:17;6.50;;;2.63;;
769;SDS011;368;48.698;9.116;2023-03-31T01:47:52;7.40;;;2.80;;
769;SDS011;368;48.698;9.116;2023-03-31T01:50:25;4.40;;;2.60;;
769;SDS011;368;48.698;9.116;2023-03-31T01:52:56;9.93;;;2.83;;
769;SDS011;368;48.698;9.116;2023-03-31T01:55:34;5.30;;;2.83;;
769;SDS011;368;48.698;9.116;2023-03-31T01:58:04;4.77;;;2.83;;
769;SDS011;368;48.698;9.116;2023-03-31T02:00:38;6.93;;;2.80;;
769;SDS011;368;48.698;9.116;2023-03-31T02:03:13;6.10;;;3.00;;
769;SDS011;368;48.698;9.116;2023-03-31T02:05:45;7.30;;;2.77;;
769;SDS011;368;48.698;9.116;2023-03-31T02:08:18;6.53;;;2.30;;
769;SDS011;368;48.698;9.116;2023-03-31T02:10:49;4.40;;;2.80;;
769;SDS011;368;48.698;9.116;2023-03-31T02:13:18;7.33;;;2.67;;
769;SDS011;368;48.698;9.116;2023-03-31T02:15:49;6.73;;;2.90;;
769;SDS011;368;48.698;9.116;2023-03-31T02:18:22;7.40;;;2.73;;
769;SDS011;368;48.698;9.116;2023-03-31T02:20:54;7.83;;;2.90;;
769;SDS011;368;48.698;9.116;2023-03-31T02:23:24;5.60;;;2.43;;
769;SDS011;368;48.698;9.116;2023-03-31T02:25:58;9.27;;;3.83;;
769;SDS011;368;48.698;9.116;2023-03-31T02:28:30;4.00;;;2.57;;
769;SDS011;368;48.698;9.116;2023-03-31T02:31:02;6.60;;;2.93;;
769;SDS011;368;48.698;9.116;2023-03-31T02:33:38;5.67;;;2.97;;
769;SDS011;368;48.698;9.116;2023-03-31T02:36:05;10.30;;;3.33;;
769;SDS011;368;48.698;9.116;2023-03-31T02:38:33;6.53;;;3.07;;
769;SDS011;368;48.698;9.116;2023-03-31T02:41:04;5.57;;;3.33;;
769;SDS011;368;48.698;9.116;2023-03-31T02:43:31;4.90;;;2.90;;
769;SDS011;368;48.698;9.116;2023-03-31T02:45:58;5.63;;;2.53;;
769;SDS011;368;48.698;9.116;2023-03-31T02:48:25;4.73;;;3.10;;
769;SDS011;368;48.698;9.116;2023-03-31T02:51:08;6.30;;;4.00;;
769;SDS011;368;48.698;9.116;2023-03-31T02:53:59;6.70;;;3.60;;
769;SDS011;368;48.698;9.116;2023-03-31T02:56:48;6.20;;;2.77;;
769;SDS011;368;48.698;9.116;2023-03-31T02:59:31;4.77;;;3.20;;
769;SDS011;368;48.698;9.116;2023-03-31T03:02:08;4.43;;;3.90;;
769;SDS011;368;48.698;9.116;2023-03-31T03:04:48;4.17;;;2.73;;
769;SDS011;368;48.698;9.116;2023-03-31T03:07:28;8.60;;;2.97;;
769;SDS011;368;48.698;9.116;2023-03-31T03:10:02;5.20;;;3.47;;
769;SDS011;368;48.698;9.116;2023-03-31T03:12:35;7.83;;;3.97;;
769;SDS011;368;48.698;9.116;2023-03-31T03:15:09;4.03;;;2.87;;
769;SDS011;368;48.698;9.116;2023-03-31T03:17:38;5.07;;;3.43;;
769;SDS011;368;48.698;9.116;2023-03-31T03:20:07;6.20;;;3.27;;
769;SDS011;368;48.698;9.116;2023-03-31T03:22:36;11.30;;;5.50;;
769;SDS011;368;48.698;9.116;2023-03-31T03:25:04;15.70;;;7.47;;
769;SDS011;368;48.698;9.116;2023-03-31T03:27:34;12.50;;;6.10;;
769;SDS011;368;48.698;9.116;2023-03-31T03:30:01;6.37;;;5.40;;
769;SDS011;368;48.698;9.116;2023-03-31T03:32:29;4.70;;;3.77;;
769;SDS011;368;48.698;9.116;2023-03-31T03:34:57;5.53;;;3.90;;
769;SDS011;368;48.698;9.116;2023-03-31T03:37:25;6.60;;;3.80;;
769;SDS011;368;48.698;9.116;2023-03-31T03:39:52;4.50;;;3.40;;
769;SDS011;368;48.698;9.116;2023-03-31T03:42:19;5.27;;;3.37;;
769;SDS011;368;48.698;9.116;2023-03-31T03:44:47;5.17;;;2.63;;
769;SDS011;368;48.698;9.116;2023-03-31T03:47:14;4.10;;;3.00;;
769;SDS011;368;48.698;9.116;2023-03-31T03:49:41;3.07;;;2.43;;
769;SDS011;368;48.698;9.116;2023-03-31T03:52:08;6.50;;;3.07;;
769;SDS011;368;48.698;9.116;2023-03-31T03:54:35;4.90;;;3.00;;
769;SDS011;368;48.698;9.116;2023-03-31T03:57:02;9.27;;;4.00;;
769;SDS011;368;48.698;9.116;2023-03-31T03:59:28;7.87;;;4.50;;
769;SDS011;368;48.698;9.116;2023-03-31T04:01:57;5.50;;;3.80;;
769;SDS011;368;48.698;9.116;2023-03-31T04:04:24;7.40;;;4.73;;
769;SDS011;368;48.698;9.116;2023-03-31T04:06:50;4.63;;;3.53;;
769;SDS011;368;48.698;9.116;2023-03-31T04:09:17;7.23;;;4.20;;
769;SDS011;368;48.698;9.116;2023-03-31T04:11:44;4.40;;;3.73;;
769;SDS011;368;48.698;9.116;2023-03-31T04:14:11;6.13;;;4.57;;
769;SDS011;368;48.698;9.116;2023-03-31T04:16:38;4.83;;;3.90;;
769;SDS011;368;48.698;9.116;2023-03-31T04:19:06;6.50;;;4.33;;
769;SDS011;368;48.698;9.116;2023-03-31T04:21:35;7.40;;;4.23;;
769;SDS011;368;48.698;9.116;2023-03-31T04:24:09;6.30;;;4.53;;
769;SDS011;368;48.698;9.116;2023-03-31T04:26:40;7.63;;;4.73;;
769;SDS011;368;48.698;9.116;2023-03-31T04:29:07;6.27;;;3.87;;
769;SDS011;368;48.698;9.116;2023-03-31T04:31:36;4.50;;;4.10;;
769;SDS011;368;48.698;9.116;2023-03-31T04:34:08;10.20;;;4.60;;
769;SDS011;368;48.698;9.116;2023-03-31T04:36:37;7.30;;;3.63;;
769;SDS011;368;48.698;9.116;2023-03-31T04:39:06;7.60;;;4.40;;
769;SDS011;368;48.698;9.116;2023-03-31T04:41:35;5.83;;;5.10;;
769;SDS011;368;48.698;9.116;2023-03-31T04:44:02;5.00;;;4.50;;
769;SDS011;368;48.698;9.116;2023-03-31T04:46:28;3.67;;;3.37;;
769;SDS011;368;48.698;9.116;2023-03-31T04:48:56;7.90;;;4.20;;
769;SDS011;368;48.698;9.116;2023-03-31T04:51:24;7.53;;;4.27;;
769;SDS011;368;48.698;9.116;2023-03-31T04:53:51;5.53;;;4.50;;
769;SDS011;368;48.698;9.116;2023-03-31T04:56:18;7.03;;;3.70;;
769;SDS011;368;48.698;9.116;2023-03-31T04:58:46;6.90;;;4.00;;
769;SDS011;368;48.698;9.116;2023-03-31T05:01:13;3.93;;;3.53;;
769;SDS011;368;48.698;9.116;2023-03-31T05:03:42;7.10;;;3.63;;
769;SDS011;368;48.698;9.116;2023-03-31T05:06:10;7.60;;;4.63;;
769;SDS011;368;48.698;9.116;2023-03-31T05:08:39;6.33;;;4.00;;
769;SDS011;368;48.698;9.116;2023-03-31T05:11:05;8.50;;;4.33;;
769;SDS011;368;48.698;9.116;2023-03-31T05:13:32;5.50;;;4.00;;
769;SDS011;368;48.698;9.116;2023-03-31T05:16:04;6.67;;;4.70;;
769;SDS011;368;48.698;9.116;2023-03-31T05:18:32;5.27;;;4.70;;
769;SDS011;368;48.698;9.116;2023-03-31T05:21:07;9.33;;;4.63;;
769;SDS011;368;48.698;9.116;2023-03-31T05:23:39;11.87;;;4.80;;
769;SDS011;368;48.698;9.116;2023-03-31T05:26:06;7.97;;;4.53;;
769;SDS011;368;48.698;9.116;2023-03-31T05:28:35;8.37;;;5.00;;
769;SDS011;368;48.698;9.116;2023-03-31T05:31:03;6.10;;;4.60;;
769;SDS011;368;48.698;9.116;2023-03-31T05:33:31;6.50;;;4.63;;
769;SDS011;368;48.698;9.116;2023-03-31T05:36:04;6.67;;;4.37;;
769;SDS011;368;48.698;9.116;2023-03-31T05:38:31;6.50;;;5.17;;
769;SDS011;368;48.698;9.116;2023-03-31T05:41:00;12.53;;;5.10;;
769;SDS011;368;48.698;9.116;2023-03-31T05:43:26;9.93;;;5.40;;
769;SDS011;368;48.698;9.116;2023-03-31T05:45:54;8.93;;;5.50;;
769;SDS011;368;48.698;9.116;2023-03-31T05:48:20;6.83;;;5.40;;
769;SDS011;368;48.698;9.116;2023-03-31T05:50:47;7.57;;;4.97;;
769;SDS011;368;48.698;9.116;2023-03-31T05:53:14;6.90;;;5.00;;
769;SDS011;368;48.698;9.116;2023-03-31T05:55:41;8.50;;;5.17;;
769;SDS011;368;48.698;9.116;2023-03-31T05:58:09;6.20;;;4.67;;
769;SDS011;368;48.698;9.116;2023-03-31T06:00:36;6.23;;;4.77;;
769;SDS011;368;48.698;9.116;2023-03-31T06:03:03;8.40;;;6.10;;
769;SDS011;368;48.698;9.116;2023-03-31T06:05:31;10.00;;;5.60;;
769;SDS011;368;48.698;9.116;2023-03-31T06:07:59;7.33;;;5.73;;
769;SDS011;368;48.698;9.116;2023-03-31T06:10:25;9.23;;;5.60;;
769;SDS011;368;48.698;9.116;2023-03-31T06:12:52;8.13;;;5.27;;
769;SDS011;368;48.698;9.116;2023-03-31T06:15:20;9.10;;;5.63;;
769;SDS011;368;48.698;9.116;2023-03-31T06:17:47;8.30;;;6.20;;
769;SDS011;368;48.698;9.116;2023-03-31T06:20:14;14.40;;;5.70;;
769;SDS011;368;48.698;9.116;2023-03-31T06:22:42;6.50;;;5.20;;
769;SDS011;368;48.698;9.116;2023-03-31T06:25:08;7.67;;;5.87;;
769;SDS011;368;48.698;9.116;2023-03-31T06:27:35;10.57;;;5.10;;
769;SDS011;368;48.698;9.116;2023-03-31T06:30:03;8.97;;;5.90;;
769;SDS011;368;48.698;9.116;2023-03-31T06:32:31;5.87;;;5.30;;
769;SDS011;368;48.698;9.116;2023-03-31T06:34:58;8.80;;;6.00;;
769;SDS011;368;48.698;9.116;2023-03-31T06:37:25;6.00;;;5.40;;
769;SDS011;368;48.698;9.116;2023-03-31T06:39:52;7.10;;;5.50;;
769;SDS011;368;48.698;9.116;2023-03-31T06:42:19;11.90;;;6.03;;
769;SDS011;368;48.698;9.116;2023-03-31T06:44:46;5.53;;;5.03;;
769;SDS011;368;48.698;9.116;2023-03-31T06:47:13;5.97;;;5.33;;
769;SDS011;368;48.698;9.116;2023-03-31T06:49:41;7.90;;;6.00;;
769;SDS011;368;48.698;9.116;2023-03-31T06:52:08;6.33;;;5.00;;
769;SDS011;368;48.698;9.116;2023-03-31T06:54:35;10.50;;;6.40;;
769;SDS011;368;48.698;9.116;2023-03-31T06:57:02;8.30;;;6.37;;
769;SDS011;368;48.698;9.116;2023-03-31T06:59:29;10.40;;;6.60;;
769;SDS011;368;48.698;9.116;2023-03-31T07:01:55;7.50;;;6.50;;
769;SDS011;368;48.698;9.116;2023-03-31T07:04:22;9.20;;;6.47;;
769;SDS011;368;48.698;9.116;2023-03-31T07:06:51;10.60;;;6.67;;
769;SDS011;368;48.698;9.116;2023-03-31T07:09:19;6.20;;;5.60;;
769;SDS011;368;48.698;9.116;2023-03-31T07:11:47;10.43;;;6.10;;
769;SDS011;368;48.698;9.116;2023-03-31T07:14:14;8.20;;;5.90;;
769;SDS011;368;48.698;9.116;2023-03-31T07:16:41;6.43;;;5.30;;
769;SDS011;368;48.698;9.116;2023-03-31T07:19:09;6.13;;;4.30;;
769;SDS011;368;48.698;9.116;2023-03-31T07:21:36;6.80;;;5.10;;
769;SDS011;368;48.698;9.116;2023-03-31T07:24:05;10.33;;;4.07;;
769;SDS011;368;48.698;9.116;2023-03-31T07:26:32;4.30;;;3.90;;
769;SDS011;368;48.698;9.116;2023-03-31T07:28:59;5.33;;;3.73;;
769;SDS011;368;48.698;9.116;2023-03-31T07:31:26;6.47;;;3.90;;
769;SDS011;368;48.698;9.116;2023-03-31T07:33:53;4.67;;;3.10;;
769;SDS011;368;48.698;9.116;2023-03-31T07:36:20;3.33;;;2.80;;
769;SDS011;368;48.698;9.116;2023-03-31T07:38:47;2.57;;;2.30;;
769;SDS011;368;48.698;9.116;2023-03-31T07:41:17;2.50;;;2.10;;
769;SDS011;368;48.698;9.116;2023-03-31T07:43:45;3.97;;;1.73;;
769;SDS011;368;48.698;9.116;2023-03-31T07:46:14;2.10;;;1.77;;
769;SDS011;368;48.698;9.116;2023-03-31T07:48:42;1.30;;;1.20;;
769;SDS011;368;48.698;9.116;2023-03-31T07:51:11;3.67;;;1.67;;
769;SDS011;368;48.698;9.116;2023-03-31T07:53:38;1.37;;;1.20;;
769;SDS011;368;48.698;9.116;2023-03-31T07:56:05;1.60;;;1.50;;
769;SDS011;368;48.698;9.116;2023-03-31T07:58:34;3.10;;;1.20;;
769;SDS011;368;48.698;9.116;2023-03-31T08:01:01;1.60;;;1.10;;
769;SDS011;368;48.698;9.116;2023-03-31T08:03:28;1.97;;;1.07;;
769;SDS011;368;48.698;9.116;2023-03-31T08:05:56;1.07;;;0.90;;
769;SDS011;368;48.698;9.116;2023-03-31T08:08:23;1.73;;;1.07;;
769;SDS011;368;48.698;9.116;2023-03-31T08:10:50;3.03;;;1.10;;
769;SDS011;368;48.698;9.116;2023-03-31T08:13:17;0.73;;;0.73;;
769;SDS011;368;48.698;9.116;2023-03-31T08:15:45;1.87;;;1.00;;
769;SDS011;368;48.698;9.116;2023-03-31T08:18:12;1.37;;;0.70;;
769;SDS011;368;48.698;9.116;2023-03-31T08:20:39;1.60;;;0.83;;
769;SDS011;368;48.698;9.116;2023-03-31T08:23:07;1.10;;;0.93;;
769;SDS011;368;48.698;9.116;2023-03-31T08:25:36;1.77;;;0.70;;
769;SDS011;368;48.698;9.116;2023-03-31T08:28:03;1.20;;;0.83;;
769;SDS011;368;48.698;9.116;2023-03-31T08:30:31;1.20;;;1.00;;
769;SDS011;368;48.698;9.116;2023-03-31T08:33:01;0.90;;;0.80;;
769;SDS011;368;48.698;9.116;2023-03-31T08:35:28;1.17;;;0.90;;
769;SDS011;368;48.698;9.116;2023-03-31T08:37:55;1.40;;;0.90;;
769;SDS011;368;48.698;9.116;2023-03-31T08:40:23;0.73;;;0.70;;
769;SDS011;368;48.698;9.116;2023-03-31T08:42:52;1.40;;;1.30;;
769;SDS011;368;48.698;9.116;2023-03-31T08:45:22;1.73;;;1.30;;
769;SDS011;368;48.698;9.116;2023-03-31T08:47:52;3.00;;;1.00;;
769;SDS011;368;48.698;9.116;2023-03-31T08:50:25;2.27;;;1.20;;
769;SDS011;368;48.698;9.116;2023-03-31T08:52:55;1.57;;;1.30;;
769;SDS011;368;48.698;9.116;2023-03-31T08:55:29;3.20;;;0.90;;
769;SDS011;368;48.698;9.116;2023-03-31T08:58:02;3.03;;;1.10;;
769;SDS011;368;48.698;9.116;2023-03-31T09:00:36;2.83;;;1.30;;
769;SDS011;368;48.698;9.116;2023-03-31T09:03:10;2.70;;;1.33;;
769;SDS011;368;48.698;9.116;2023-03-31T09:05:46;3.07;;;1.33;;
769;SDS011;368;48.698;9.116;2023-03-31T09:08:22;1.47;;;1.00;;
769;SDS011;368;48.698;9.116;2023-03-31T09:11:03;1.43;;;1.20;;
769;SDS011;368;48.698;9.116;2023-03-31T09:16:32;1.63;;;1.20;;
769;SDS011;368;48.698;9.116;2023-03-31T09:19:07;4.60;;;1.60;;
769;SDS011;368;48.698;9.116;2023-03-31T09:21:42;2.57;;;1.53;;
769;SDS011;368;48.698;9.116;2023-03-31T09:24:14;2.60;;;1.17;;
769;SDS011;368;48.698;9.116;2023-03-31T09:26:45;2.33;;;1.20;;
769;SDS011;368;48.698;9.116;2023-03-31T09:29:18;2.20;;;0.90;;
769;SDS011;368;48.698;9.116;2023-03-31T09:31:48;3.87;;;1.30;;
769;SDS011;368;48.698;9.116;2023-03-31T09:34:16;1.80;;;1.30;;
769;SDS011;368;48.698;9.116;2023-03-31T09:36:49;1.90;;;1.20;;
769;SDS011;368;48.698;9.116;2023-03-31T09:39:16;1.73;;;0.90;;
769;SDS011;368;48.698;9.116;2023-03-31T09:41:44;2.77;;;1.10;;
769;SDS011;368;48.698;9.116;2023-03-31T09:44:25;5.37;;;1.37;;
769;SDS011;368;48.698;9.116;2023-03-31T09:46:55;2.70;;;1.30;;
769;SDS011;368;48.698;9.116;2023-03-31T09:49:30;4.10;;;1.33;;
769;SDS011;368;48.698;9.116;2023-03-31T09:52:04;2.90;;;0.93;;
769;SDS011;368;48.698;9.116;2023-03-31T09:54:36;2.97;;;1.30;;
769;SDS011;368;48.698;9.116;2023-03-31T09:57:15;3.17;;;1.47;;
769;SDS011;368;48.698;9.116;2023-03-31T09:59:50;4.30;;;1.23;;
769;SDS011;368;48.698;9.116;2023-03-31T10:02:33;2.47;;;1.37;;
769;SDS011;368;48.698;9.116;2023-03-31T10:05:03;1.93;;;0.93;;
769;SDS011;368;48.698;9.116;2023-03-31T10:07:32;1.63;;;1.10;;
769;SDS011;368;48.698;9.116;2023-03-31T10:10:01;4.43;;;1.63;;
769;SDS011;368;48.698;9.116;2023-03-31T10:12:35;2.53;;;1.00;;
769;SDS011;368;48.698;9.116;2023-03-31T10:15:10;2.97;;;1.50;;
769;SDS011;368;48.698;9.116;2023-03-31T10:17:47;5.40;;;1.57;;
769;SDS011;368;48.698;9.116;2023-03-31T10:20:20;3.40;;;1.40;;
769;SDS011;368;48.698;9.116;2023-03-31T10:22:59;4.00;;;1.57;;
769;SDS011;368;48.698;9.116;2023-03-31T10:25:28;5.07;;;1.53;;
769;SDS011;368;48.698;9.116;2023-03-31T10:27:55;2.90;;;1.37;;
769;SDS011;368;48.698;9.116;2023-03-31T10:30:25;2.50;;;1.57;;
769;SDS011;368;48.698;9.116;2023-03-31T10:32:57;5.57;;;1.73;;
769;SDS011;368;48.698;9.116;2023-03-31T10:35:25;3.07;;;1.50;;
769;SDS011;368;48.698;9.116;2023-03-31T10:37:57;3.83;;;1.63;;
769;SDS011;368;48.698;9.116;2023-03-31T10:40:28;5.30;;;1.67;;
769;SDS011;368;48.698;9.116;2023-03-31T10:42:58;5.30;;;1.30;;
769;SDS011;368;48.698;9.116;2023-03-31T10:45:28;4.10;;;1.50;;
769;SDS011;368;48.698;9.116;2023-03-31T10:48:01;4.07;;;1.80;;
769;SDS011;368;48.698;9.116;2023-03-31T10:50:29;3.97;;;1.70;;
769;SDS011;368;48.698;9.116;2023-03-31T10:53:02;4.23;;;1.30;;
769;SDS011;368;48.698;9.116;2023-03-31T10:55:33;4.50;;;1.30;;
769;SDS011;368;48.698;9.116;2023-03-31T10:58:08;4.10;;;1.20;;
769;SDS011;368;48.698;9.116;2023-03-31T11:00:49;6.43;;;1.30;;
769;SDS011;368;48.698;9.116;2023-03-31T11:03:37;3.37;;;1.30;;
769;SDS011;368;48.698;9.116;2023-03-31T11:06:32;5.87;;;1.70;;
769;SDS011;368;48.698;9.116;2023-03-31T11:09:18;8.17;;;1.90;;
769;SDS011;368;48.698;9.116;2023-03-31T11:12:02;7.83;;;1.87;;
769;SDS011;368;48.698;9.116;2023-03-31T11:14:39;4.60;;;1.40;;
769;SDS011;368;48.698;9.116;2023-03-31T11:17:20;8.50;;;2.63;;
769;SDS011;368;48.698;9.116;2023-03-31T11:20:01;4.87;;;2.67;;
769;SDS011;368;48.698;9.116;2023-03-31T11:22:42;3.10;;;1.00;;
769;SDS011;368;48.698;9.116;2023-03-31T11:25:19;2.27;;;0.80;;
769;SDS011;368;48.698;9.116;2023-03-31T11:28:03;5.03;;;1.00;;
769;SDS011;368;48.698;9.116;2023-03-31T11:30:51;2.80;;;0.70;;
769;SDS011;368;48.698;9.116;2023-03-31T11:33:29;1.43;;;0.70;;
769;SDS011;368;48.698;9.116;2023-03-31T11:36:15;2.30;;;1.67;;
769;SDS011;368;48.698;9.116;2023-03-31T11:38:57;2.83;;;0.80;;
769;SDS011;368;48.698;9.116;2023-03-31T11:41:35;1.70;;;0.50;;
769;SDS011;368;48.698;9.116;2023-03-31T11:44:08;0.83;;;0.67;;
769;SDS011;368;48.698;9.116;2023-03-31T11:46:38;1.20;;;0.50;;
769;SDS011;368;48.698;9.116;2023-03-31T11:49:10;4.00;;;0.50;;
769;SDS011;368;48.698;9.116;2023-03-31T11:51:44;0.97;;;0.40;;
769;SDS011;368;48.698;9.116;2023-03-31T11:54:16;4.40;;;0.60;;
769;SDS011;368;48.698;9.116;2023-03-31T11:56:52;0.90;;;0.60;;
769;SDS011;368;48.698;9.116;2023-03-31T11:59:21;1.60;;;0.47;;
769;SDS011;368;48.698;9.116;2023-03-31T12:01:56;1.23;;;0.50;;
769;SDS011;368;48.698;9.116;2023-03-31T12:04:35;1.77;;;0.70;;
769;SDS011;368;48.698;9.116;2023-03-31T12:07:07;2.00;;;0.40;;
769;SDS011;368;48.698;9.116;2023-03-31T12:09:49;0.83;;;0.30;;
769;SDS011;368;48.698;9.116;2023-03-31T12:12:21;0.50;;;0.30;;
769;SDS011;368;48.698;9.116;2023-03-31T12:14:50;1.27;;;0.40;;
769;SDS011;368;48.698;9.116;2023-03-31T12:17:22;1.20;;;0.40;;
769;SDS011;368;48.698;9.116;2023-03-31T12:19:53;0.43;;;0.40;;
769;SDS011;368;48.698;9.116;2023-03-31T12:22:23;2.33;;;0.40;;
769;SDS011;368;48.698;9.116;2023-03-31T12:24:52;1.83;;;0.30;;
769;SDS011;368;48.698;9.116;2023-03-31T12:27:21;1.10;;;0.40;;
769;SDS011;368;48.698;9.116;2023-03-31T12:29:53;1.53;;;0.60;;
769;SDS011;368;48.698;9.116;2023-03-31T12:32:22;1.53;;;0.67;;
769;SDS011;368;48.698;9.116;2023-03-31T12:34:54;1.67;;;0.50;;
769;SDS011;368;48.698;9.116;2023-03-31T12:37:33;0.57;;;0.30;;
769;SDS011;368;48.698;9.116;2023-03-31T12:40:17;0.57;;;0.37;;
769;SDS011;368;48.698;9.116;2023-03-31T12:43:10;0.80;;;0.50;;
769;SDS011;368;48.698;9.116;2023-03-31T12:45:53;0.90;;;0.47;;
769;SDS011;368;48.698;9.116;2023-03-31T12:48:31;1.93;;;0.50;;
769;SDS011;368;48.698;9.116;2023-03-31T12:51:26;1.07;;;0.60;;
769;SDS011;368;48.698;9.116;2023-03-31T12:54:08;1.27;;;0.53;;
769;SDS011;368;48.698;9.116;2023-03-31T12:57:01;1.80;;;0.70;;
769;SDS011;368;48.698;9.116;2023-03-31T12:59:34;1.17;;;0.80;;
769;SDS011;368;48.698;9.116;2023-03-31T13:04:53;2.20;;;0.93;;
769;SDS011;368;48.698;9.116;2023-03-31T13:13:00;2.73;;;1.40;;
769;SDS011;368;48.698;9.116;2023-03-31T13:15:31;2.73;;;1.37;;
769;SDS011;368;48.698;9.116;2023-03-31T13:17:58;4.07;;;1.87;;
769;SDS011;368;48.698;9.116;2023-03-31T13:20:36;3.07;;;1.37;;
769;SDS011;368;48.698;9.116;2023-03-31T13:23:16;6.60;;;2.00;;
769;SDS011;368;48.698;9.116;2023-03-31T13:25:47;4.53;;;2.47;;
769;SDS011;368;48.698;9.116;2023-03-31T13:28:17;8.37;;;2.70;;
769;SDS011;368;48.698;9.116;2023-03-31T13:30:53;5.17;;;1.57;;
769;SDS011;368;48.698;9.116;2023-03-31T13:33:23;1.97;;;1.10;;
769;SDS011;368;48.698;9.116;2023-03-31T13:35:55;1.60;;;0.80;;
769;SDS011;368;48.698;9.116;2023-03-31T13:38:43;2.13;;;1.13;;
769;SDS011;368;48.698;9.116;2023-03-31T13:41:22;3.10;;;1.10;;
769;SDS011;368;48.698;9.116;2023-03-31T13:44:24;2.00;;;0.70;;
769;SDS011;368;48.698;9.116;2023-03-31T13:50:12;0.60;;;0.37;;
769;SDS011;368;48.698;9.116;2023-03-31T13:52:46;1.40;;;0.63;;
769;SDS011;368;48.698;9.116;2023-03-31T13:55:27;1.90;;;0.40;;
769;SDS011;368;48.698;9.116;2023-03-31T13:58:20;0.73;;;0.33;;
769;SDS011;368;48.698;9.116;2023-03-31T14:01:15;0.50;;;0.40;;
769;SDS011;368;48.698;9.116;2023-03-31T14:04:06;0.50;;;0.50;;
769;SDS011;368;48.698;9.116;2023-03-31T14:06:49;0.40;;;0.30;;
769;SDS011;368;48.698;9.116;2023-03-31T14:09:21;0.43;;;0.40;;
769;SDS011;368;48.698;9.116;2023-03-31T14:11:52;0.97;;;0.40;;
769;SDS011;368;48.698;9.116;2023-03-31T14:14:20;2.00;;;0.40;;
769;SDS011;368;48.698;9.116;2023-03-31T14:16:50;1.30;;;0.60;;
769;SDS011;368;48.698;9.116;2023-03-31T14:19:25;0.70;;;0.47;;
769;SDS011;368;48.698;9.116;2023-03-31T14:22:16;1.07;;;0.40;;
769;SDS011;368;48.698;9.116;2023-03-31T14:24:53;3.50;;;0.70;;
769;SDS011;368;48.698;9.116;2023-03-31T14:27:33;4.40;;;3.30;;
769;SDS011;368;48.698;9.116;2023-03-31T14:30:11;1.43;;;0.67;;
769;SDS011;368;48.698;9.116;2023-03-31T14:32:46;1.67;;;0.50;;
769;SDS011;368;48.698;9.116;2023-03-31T14:35:27;0.90;;;0.30;;
769;SDS011;368;48.698;9.116;2023-03-31T14:38:02;0.70;;;0.40;;
769;SDS011;368;48.698;9.116;2023-03-31T14:40:31;0.60;;;0.50;;
769;SDS011;368;48.698;9.116;2023-03-31T14:42:58;0.60;;;0.30;;
769;SDS011;368;48.698;9.116;2023-03-31T14:45:26;1.13;;;0.40;;
769;SDS011;368;48.698;9.116;2023-03-31T14:48:01;0.70;;;0.43;;
769;SDS011;368;48.698;9.116;2023-03-31T14:50:36;1.13;;;0.30;;
769;SDS011;368;48.698;9.116;2023-03-31T14:53:03;3.93;;;0.53;;
769;SDS011;368;48.698;9.116;2023-03-31T14:55:39;0.70;;;0.70;;
769;SDS011;368;48.698;9.116;2023-03-31T14:58:07;2.00;;;0.50;;
769;SDS011;368;48.698;9.116;2023-03-31T15:00:38;1.03;;;0.50;;
769;SDS011;368;48.698;9.116;2023-03-31T15:03:11;1.23;;;0.50;;
769;SDS011;368;48.698;9.116;2023-03-31T15:05:43;1.60;;;0.77;;
769;SDS011;368;48.698;9.116;2023-03-31T15:08:11;1.87;;;0.60;;
769;SDS011;368;48.698;9.116;2023-03-31T15:10:42;1.20;;;0.60;;
769;SDS011;368;48.698;9.116;2023-03-31T15:13:14;1.80;;;0.63;;
769;SDS011;368;48.698;9.116;2023-03-31T15:15:44;2.00;;;0.80;;
769;SDS011;368;48.698;9.116;2023-03-31T15:18:11;1.90;;;0.80;;
769;SDS011;368;48.698;9.116;2023-03-31T15:20:40;2.53;;;0.73;;
769;SDS011;368;48.698;9.116;2023-03-31T15:23:19;1.90;;;0.50;;
769;SDS011;368;48.698;9.116;2023-03-31T15:25:48;2.27;;;0.60;;
769;SDS011;368;48.698;9.116;2023-03-31T15:28:20;3.80;;;0.67;;
769;SDS011;368;48.698;9.116;2023-03-31T15:30:48;2.20;;;0.60;;
769;SDS011;368;48.698;9.116;2023-03-31T15:33:17;1.63;;;0.63;;
769;SDS011;368;48.698;9.116;2023-03-31T15:35:47;2.10;;;0.60;;
769;SDS011;368;48.698;9.116;2023-03-31T15:38:14;0.60;;;0.40;;
769;SDS011;368;48.698;9.116;2023-03-31T15:40:44;2.40;;;0.80;;
769;SDS011;368;48.698;9.116;2023-03-31T15:43:17;1.23;;;0.67;;
769;SDS011;368;48.698;9.116;2023-03-31T15:45:52;1.80;;;0.90;;
769;SDS011;368;48.698;9.116;2023-03-31T15:48:21;2.67;;;0.70;;
769;SDS011;368;48.698;9.116;2023-03-31T15:50:53;1.03;;;0.80;;
769;SDS011;368;48.698;9.116;2023-03-31T15:53:26;4.03;;;0.73;;
769;SDS011;368;48.698;9.116;2023-03-31T15:55:58;1.07;;;0.63;;
769;SDS011;368;48.698;9.116;2023-03-31T16:01:12;1.93;;;0.70;;
769;SDS011;368;48.698;9.116;2023-03-31T16:03:41;1.90;;;0.70;;
769;SDS011;368;48.698;9.116;2023-03-31T16:06:14;2.50;;;0.73;;
769;SDS011;368;48.698;9.116;2023-03-31T16:08:46;3.53;;;1.10;;
769;SDS011;368;48.698;9.116;2023-03-31T16:11:19;1.60;;;0.80;;
769;SDS011;368;48.698;9.116;2023-03-31T16:13:51;2.87;;;1.07;;
769;SDS011;368;48.698;9.116;2023-03-31T16:16:22;2.07;;;1.00;;
769;SDS011;368;48.698;9.116;2023-03-31T16:18:52;1.93;;;1.13;;
769;SDS011;368;48.698;9.116;2023-03-31T16:21:28;1.93;;;1.33;;
769;SDS011;368;48.698;9.116;2023-03-31T16:24:01;2.03;;;0.77;;
769;SDS011;368;48.698;9.116;2023-03-31T16:26:29;4.13;;;1.00;;
769;SDS011;368;48.698;9.116;2023-03-31T16:28:57;4.00;;;1.73;;
769;SDS011;368;48.698;9.116;2023-03-31T16:31:26;5.20;;;1.57;;
769;SDS011;368;48.698;9.116;2023-03-31T16:33:55;1.63;;;1.17;;
769;SDS011;368;48.698;9.116;2023-03-31T16:36:22;1.90;;;0.80;;
769;SDS011;368;48.698;9.116;2023-03-31T16:38:50;0.87;;;0.57;;
769;SDS011;368;48.698;9.116;2023-03-31T16:41:17;3.27;;;1.50;;